sensor_id;sensor_type;location;lat;lon;timestamp;pressure;altitude;pressure_sealevel;temperature;humidity
48352;BME280;34163;49.314;6.752;2024-02-23T00:02:14;97557.66;;;6.32;100.00
48352;BME280;34163;49.314;6.752;2024-02-23T00:04:39;97623.06;;;6.53;100.00
48352;BME280;34163;49.314;6.752;2024-02-23T00:07:05;97636.78;;;6.58;100.00
48352;BME280;34163;49.314;6.752;2024-02-23T00:09:33;97624.53;;;6.43;100.00
48352;BME280;34163;49.314;6.752;2024-02-23T00:11:59;97636.38;;;6.35;100.00
48352;BME280;34163;49.314;6.752;2024-02-23T00:14:24;97625.41;;;6.43;100.00
48352;BME280;34163;49.314;6.752;2024-02-23T00:16:49;97632.25;;;6.31;100.00
48352;BME280;34163;49.314;6.752;2024-02-23T00:19:21;97631.88;;;6.38;100.00
48352;BME280;34163;49.314;6.752;2024-02-23T00:21:47;97622.06;;;6.25;100.00
48352;BME280;34163;49.314;6.752;2024-02-23T00:24:15;97623.41;;;6.18;100.00
48352;BME280;34163;49.314;6.752;2024-02-23T00:26:41;97617.22;;;6.19;100.00
48352;BME280;34163;49.314;6.752;2024-02-23T00:29:06;97617.88;;;6.23;100.00
48352;BME280;34163;49.314;6.752;2024-02-23T00:31:31;97614.19;;;6.25;100.00
48352;BME280;34163;49.314;6.752;2024-02-23T00:33:57;97621.91;;;6.28;100.00
48352;BME280;34163;49.314;6.752;2024-02-23T00:36:22;97619.00;;;6.33;100.00
48352;BME280;34163;49.314;6.752;2024-02-23T00:38:48;97623.88;;;6.25;100.00
48352;BME280;34163;49.314;6.752;2024-02-23T00:41:13;97624.88;;;6.22;100.00
48352;BME280;34163;49.314;6.752;2024-02-23T00:43:39;97634.75;;;6.18;100.00
48352;BME280;34163;49.314;6.752;2024-02-23T00:46:04;97639.09;;;6.20;100.00
48352;BME280;34163;49.314;6.752;2024-02-23T00:48:30;97642.66;;;6.18;100.00
48352;BME280;34163;49.314;6.752;2024-02-23T00:50:55;97641.63;;;6.21;100.00
48352;BME280;34163;49.314;6.752;2024-02-23T00:53:20;97641.97;;;6.15;100.00
48352;BME280;34163;49.314;6.752;2024-02-23T06:13:49;97624.38;;;5.55;100.00
48352;BME280;34163;49.314;6.752;2024-02-23T06:16:14;97627.09;;;5.53;100.00
48352;BME280;34163;49.314;6.752;2024-02-23T06:18:40;97627.97;;;5.54;100.00
48352;BME280;34163;49.314;6.752;2024-02-23T06:21:15;97634.13;;;5.53;100.00
48352;BME280;34163;49.314;6.752;2024-02-23T06:23:41;97637.69;;;5.52;100.00
48352;BME280;34163;49.314;6.752;2024-02-23T06:26:06;97636.94;;;5.50;100.00
48352;BME280;34163;49.314;6.752;2024-02-23T06:28:32;97639.56;;;5.50;100.00
48352;BME280;34163;49.314;6.752;2024-02-23T06:30:58;97639.31;;;5.54;100.00
48352;BME280;34163;49.314;6.752;2024-02-23T06:33:23;97632.59;;;5.49;100.00
48352;BME280;34163;49.314;6.752;2024-02-23T06:35:48;97629.47;;;5.42;100.00
48352;BME280;34163;49.314;6.752;2024-02-23T06:38:13;97622.00;;;5.50;100.00
48352;BME280;34163;49.314;6.752;2024-02-23T06:40:41;97631.75;;;5.48;100.00
48352;BME280;34163;49.314;6.752;2024-02-23T06:43:06;97631.75;;;5.48;100.00
48352;BME280;34163;49.314;6.752;2024-02-23T06:45:32;97630.50;;;5.39;100.00
48352;BME280;34163;49.314;6.752;2024-02-23T06:48:03;97631.94;;;5.45;100.00
48352;BME280;34163;49.314;6.752;2024-02-23T06:50:34;97636.94;;;5.50;100.00
48352;BME280;34163;49.314;6.752;2024-02-23T06:53:05;97640.41;;;5.50;100.00
48352;BME280;34163;49.314;6.752;2024-02-23T06:55:31;97645.66;;;5.50;100.00
48352;BME280;34163;49.314;6.752;2024-02-23T06:58:02;97641.59;;;5.44;100.00
48352;BME280;34163;49.314;6.752;2024-02-23T07:00:29;97644.06;;;5.48;100.00
48352;BME280;34163;49.314;6.752;2024-02-23T07:02:55;97639.16;;;5.41;100.00
48352;BME280;34163;49.314;6.752;2024-02-23T07:05:20;97657.44;;;5.43;100.00
48352;BME280;34163;49.314;6.752;2024-02-23T07:07:45;97639.66;;;5.48;100.00
48352;BME280;34163;49.314;6.752;2024-02-23T07:10:11;97641.53;;;5.46;100.00
48352;BME280;34163;49.314;6.752;2024-02-23T07:12:37;97645.16;;;5.43;100.00
48352;BME280;34163;49.314;6.752;2024-02-23T07:15:02;97641.84;;;5.40;100.00
48352;BME280;34163;49.314;6.752;2024-02-23T07:17:27;97643.88;;;5.51;100.00
48352;BME280;34163;49.314;6.752;2024-02-23T07:19:56;97650.31;;;5.45;100.00
48352;BME280;34163;49.314;6.752;2024-02-23T07:22:29;97660.06;;;5.43;100.00
48352;BME280;34163;49.314;6.752;2024-02-23T07:24:55;97661.84;;;5.42;100.00
48352;BME280;34163;49.314;6.752;2024-02-23T07:27:20;97663.44;;;5.45;100.00
48352;BME280;34163;49.314;6.752;2024-02-23T07:29:45;97667.63;;;5.49;100.00
48352;BME280;34163;49.314;6.752;2024-02-23T07:32:10;97674.53;;;5.50;100.00
48352;BME280;34163;49.314;6.752;2024-02-23T07:34:36;97664.75;;;5.54;100.00
48352;BME280;34163;49.314;6.752;2024-02-23T07:37:01;97670.81;;;5.54;100.00
48352;BME280;34163;49.314;6.752;2024-02-23T07:39:29;97674.13;;;5.58;100.00
48352;BME280;34163;49.314;6.752;2024-02-23T07:41:54;97671.91;;;5.50;100.00
48352;BME280;34163;49.314;6.752;2024-02-23T07:44:19;97670.25;;;5.49;100.00
48352;BME280;34163;49.314;6.752;2024-02-23T07:46:50;97669.13;;;5.53;100.00
48352;BME280;34163;49.314;6.752;2024-02-23T07:49:19;97668.28;;;5.53;100.00
48352;BME280;34163;49.314;6.752;2024-02-23T07:51:44;97675.91;;;5.57;100.00
48352;BME280;34163;49.314;6.752;2024-02-23T07:54:12;97663.88;;;5.53;100.00
48352;BME280;34163;49.314;6.752;2024-02-23T07:56:48;97670.81;;;5.54;100.00
48352;BME280;34163;49.314;6.752;2024-02-23T07:59:23;97678.63;;;5.56;100.00
48352;BME280;34163;49.314;6.752;2024-02-23T08:01:57;97679.47;;;5.56;100.00
48352;BME280;34163;49.314;6.752;2024-02-23T08:04:22;97677.69;;;5.57;100.00
48352;BME280;34163;49.314;6.752;2024-02-23T08:06:48;97677.41;;;5.61;100.00
48352;BME280;34163;49.314;6.752;2024-02-23T08:09:19;97684.63;;;5.74;100.00
48352;BME280;34163;49.314;6.752;2024-02-23T08:11:47;97677.59;;;5.58;100.00
48352;BME280;34163;49.314;6.752;2024-02-23T08:14:16;97683.78;;;5.57;100.00
48352;BME280;34163;49.314;6.752;2024-02-23T08:45:39;97701.16;;;5.60;100.00
48352;BME280;34163;49.314;6.752;2024-02-23T08:48:04;97703.44;;;5.66;100.00
48352;BME280;34163;49.314;6.752;2024-02-23T08:50:29;97694.88;;;5.62;100.00
48352;BME280;34163;49.314;6.752;2024-02-23T08:52:55;97693.34;;;5.58;100.00
48352;BME280;34163;49.314;6.752;2024-02-23T08:55:20;97696.19;;;5.55;100.00
48352;BME280;34163;49.314;6.752;2024-02-23T08:57:46;97694.13;;;5.60;100.00
48352;BME280;34163;49.314;6.752;2024-02-23T09:00:12;97697.84;;;5.56;100.00
48352;BME280;34163;49.314;6.752;2024-02-23T09:02:37;97693.88;;;5.65;100.00
48352;BME280;34163;49.314;6.752;2024-02-23T09:05:03;97697.09;;;5.54;100.00
48352;BME280;34163;49.314;6.752;2024-02-23T09:07:28;97697.69;;;5.59;100.00
48352;BME280;34163;49.314;6.752;2024-02-23T09:09:54;97700.66;;;5.53;100.00
48352;BME280;34163;49.314;6.752;2024-02-23T09:12:19;97703.09;;;5.56;100.00
48352;BME280;34163;49.314;6.752;2024-02-23T09:14:45;97701.50;;;5.54;100.00
48352;BME280;34163;49.314;6.752;2024-02-23T09:17:10;97692.16;;;5.64;100.00
48352;BME280;34163;49.314;6.752;2024-02-23T09:19:37;97697.50;;;5.62;100.00
48352;BME280;34163;49.314;6.752;2024-02-23T09:22:03;97700.31;;;5.59;100.00
48352;BME280;34163;49.314;6.752;2024-02-23T09:24:28;97707.78;;;5.67;100.00
48352;BME280;34163;49.314;6.752;2024-02-23T09:26:53;97707.28;;;5.60;100.00
48352;BME280;34163;49.314;6.752;2024-02-23T09:29:19;97709.81;;;5.62;100.00
48352;BME280;34163;49.314;6.752;2024-02-23T09:31:44;97718.28;;;5.67;100.00
48352;BME280;34163;49.314;6.752;2024-02-23T09:34:10;97712.28;;;5.65;100.00
48352;BME280;34163;49.314;6.752;2024-02-23T09:36:35;97705.66;;;5.58;100.00
48352;BME280;34163;49.314;6.752;2024-02-23T09:39:03;97700.13;;;5.62;100.00
48352;BME280;34163;49.314;6.752;2024-02-23T09:41:29;97702.75;;;5.62;100.00
48352;BME280;34163;49.314;6.752;2024-02-23T09:43:55;97698.25;;;5.64;100.00
48352;BME280;34163;49.314;6.752;2024-02-23T09:46:22;97698.19;;;5.66;100.00
48352;BME280;34163;49.314;6.752;2024-02-23T09:48:48;97699.47;;;5.59;100.00
48352;BME280;34163;49.314;6.752;2024-02-23T09:51:13;97703.59;;;5.63;100.00
48352;BME280;34163;49.314;6.752;2024-02-23T09:53:39;97693.19;;;5.61;100.00
48352;BME280;34163;49.314;6.752;2024-02-23T09:56:06;97698.44;;;5.61;100.00
48352;BME280;34163;49.314;6.752;2024-02-23T09:58:33;97695.56;;;5.66;100.00
48352;BME280;34163;49.314;6.752;2024-02-23T10:00:59;97699.97;;;5.66;100.00
48352;BME280;34163;49.314;6.752;2024-02-23T10:03:27;97699.06;;;5.67;100.00
48352;BME280;34163;49.314;6.752;2024-02-23T10:05:53;97697.16;;;5.69;100.00
48352;BME280;34163;49.314;6.752;2024-02-23T10:08:19;97690.38;;;5.64;100.00
48352;BME280;34163;49.314;6.752;2024-02-23T10:10:45;97686.56;;;5.70;100.00
48352;BME280;34163;49.314;6.752;2024-02-23T10:13:11;97684.69;;;5.72;100.00
48352;BME280;34163;49.314;6.752;2024-02-23T10:15:36;97679.44;;;5.72;100.00
48352;BME280;34163;49.314;6.752;2024-02-23T10:18:01;97678.44;;;5.75;100.00
48352;BME280;34163;49.314;6.752;2024-02-23T10:20:26;97682.16;;;5.71;100.00
48352;BME280;34163;49.314;6.752;2024-02-23T10:22:52;97679.44;;;5.72;100.00
48352;BME280;34163;49.314;6.752;2024-02-23T10:25:18;97676.25;;;5.67;100.00
48352;BME280;34163;49.314;6.752;2024-02-23T10:27:44;97676.91;;;5.71;100.00
48352;BME280;34163;49.314;6.752;2024-02-23T10:30:09;97677.16;;;5.66;100.00
48352;BME280;34163;49.314;6.752;2024-02-23T10:32:37;97684.88;;;5.69;100.00
48352;BME280;34163;49.314;6.752;2024-02-23T10:35:03;97685.75;;;5.70;100.00
48352;BME280;34163;49.314;6.752;2024-02-23T10:37:33;97695.78;;;5.77;100.00
48352;BME280;34163;49.314;6.752;2024-02-23T10:39:59;97698.72;;;5.73;100.00
48352;BME280;34163;49.314;6.752;2024-02-23T10:42:25;97698.88;;;5.70;100.00
48352;BME280;34163;49.314;6.752;2024-02-23T10:44:53;97703.84;;;5.74;100.00
48352;BME280;34163;49.314;6.752;2024-02-23T10:47:20;97706.69;;;5.71;100.00
48352;BME280;34163;49.314;6.752;2024-02-23T10:49:49;97708.25;;;5.74;100.00
48352;BME280;34163;49.314;6.752;2024-02-23T10:52:14;97706.06;;;5.66;100.00
48352;BME280;34163;49.314;6.752;2024-02-23T10:54:40;97711.94;;;5.71;100.00
48352;BME280;34163;49.314;6.752;2024-02-23T10:57:05;97710.13;;;5.72;100.00
48352;BME280;34163;49.314;6.752;2024-02-23T10:59:31;97711.72;;;5.74;100.00
48352;BME280;34163;49.314;6.752;2024-02-23T11:01:56;97702.19;;;5.73;100.00
48352;BME280;34163;49.314;6.752;2024-02-23T11:04:24;97698.19;;;5.66;100.00
48352;BME280;34163;49.314;6.752;2024-02-23T11:06:51;97685.75;;;5.70;100.00
48352;BME280;34163;49.314;6.752;2024-02-23T11:09:16;97688.38;;;5.70;100.00
48352;BME280;34163;49.314;6.752;2024-02-23T11:11:50;97684.97;;;5.68;100.00
48352;BME280;34163;49.314;6.752;2024-02-23T11:14:16;97673.69;;;5.66;100.00
48352;BME280;34163;49.314;6.752;2024-02-23T11:16:42;97679.13;;;5.62;100.00
48352;BME280;34163;49.314;6.752;2024-02-23T11:19:08;97681.31;;;5.70;100.00
48352;BME280;34163;49.314;6.752;2024-02-23T11:21:38;97668.28;;;5.69;100.00
48352;BME280;34163;49.314;6.752;2024-02-23T11:24:06;97682.81;;;5.74;100.00
48352;BME280;34163;49.314;6.752;2024-02-23T11:26:31;97672.44;;;5.73;100.00
48352;BME280;34163;49.314;6.752;2024-02-23T11:28:58;97672.50;;;5.71;100.00
48352;BME280;34163;49.314;6.752;2024-02-23T11:31:25;97666.13;;;5.75;100.00
48352;BME280;34163;49.314;6.752;2024-02-23T11:33:50;97664.44;;;5.74;100.00
48352;BME280;34163;49.314;6.752;2024-02-23T11:38:50;97654.69;;;5.76;100.00
48352;BME280;34163;49.314;6.752;2024-02-23T11:41:16;97649.19;;;5.81;100.00
48352;BME280;34163;49.314;6.752;2024-02-23T11:43:42;97656.88;;;5.84;100.00
48352;BME280;34163;49.314;6.752;2024-02-23T11:46:07;97647.22;;;5.85;100.00
48352;BME280;34163;49.314;6.752;2024-02-23T11:48:51;97640.06;;;5.87;100.00
48352;BME280;34163;49.314;6.752;2024-02-23T11:51:22;97641.88;;;5.86;100.00
48352;BME280;34163;49.314;6.752;2024-02-23T11:53:48;97630.59;;;5.84;100.00
48352;BME280;34163;49.314;6.752;2024-02-23T11:56:14;97635.88;;;5.84;100.00
48352;BME280;34163;49.314;6.752;2024-02-23T11:58:50;97638.06;;;5.76;100.00
48352;BME280;34163;49.314;6.752;2024-02-23T12:01:31;97643.16;;;5.79;100.00
48352;BME280;34163;49.314;6.752;2024-02-23T12:03:57;97641.47;;;5.78;100.00
48352;BME280;34163;49.314;6.752;2024-02-23T12:06:22;97636.97;;;5.80;100.00
48352;BME280;34163;49.314;6.752;2024-02-23T12:08:48;97642.31;;;5.78;100.00
48352;BME280;34163;49.314;6.752;2024-02-23T12:11:14;97631.97;;;5.75;100.00
48352;BME280;34163;49.314;6.752;2024-02-23T12:13:39;97624.22;;;5.88;100.00
48352;BME280;34163;49.314;6.752;2024-02-23T12:16:06;97628.25;;;5.79;100.00
48352;BME280;34163;49.314;6.752;2024-02-23T12:18:42;97631.03;;;5.76;100.00
48352;BME280;34163;49.314;6.752;2024-02-23T12:21:11;97622.13;;;5.79;100.00
48352;BME280;34163;49.314;6.752;2024-02-23T12:26:04;97623.66;;;5.83;100.00
48352;BME280;34163;49.314;6.752;2024-02-23T12:28:30;97618.75;;;5.77;100.00
48352;BME280;34163;49.314;6.752;2024-02-23T12:30:59;97619.50;;;5.79;100.00
48352;BME280;34163;49.314;6.752;2024-02-23T12:33:24;97610.69;;;5.80;100.00
48352;BME280;34163;49.314;6.752;2024-02-23T12:35:53;97610.94;;;5.75;100.00
48352;BME280;34163;49.314;6.752;2024-02-23T12:38:18;97605.69;;;5.75;100.00
48352;BME280;34163;49.314;6.752;2024-02-23T12:40:43;97615.38;;;5.75;100.00
48352;BME280;34163;49.314;6.752;2024-02-23T12:43:09;97604.59;;;5.79;100.00
48352;BME280;34163;49.314;6.752;2024-02-23T12:45:34;97616.19;;;5.75;100.00
48352;BME280;34163;49.314;6.752;2024-02-23T12:47:59;97611.88;;;5.74;100.00
48352;BME280;34163;49.314;6.752;2024-02-23T12:50:25;97606.72;;;5.73;100.00
48352;BME280;34163;49.314;6.752;2024-02-23T12:52:50;97593.59;;;5.73;100.00
48352;BME280;34163;49.314;6.752;2024-02-23T12:55:17;97593.47;;;5.74;100.00
48352;BME280;34163;49.314;6.752;2024-02-23T12:57:42;97593.59;;;5.73;100.00
48352;BME280;34163;49.314;6.752;2024-02-23T13:00:07;97592.69;;;5.88;100.00
48352;BME280;34163;49.314;6.752;2024-02-23T13:02:33;97592.94;;;5.83;100.00
48352;BME280;34163;49.314;6.752;2024-02-23T13:04:59;97584.66;;;5.75;100.00
48352;BME280;34163;49.314;6.752;2024-02-23T13:07:24;97579.50;;;5.74;100.00
48352;BME280;34163;49.314;6.752;2024-02-23T13:09:49;97581.22;;;5.75;100.00
48352;BME280;34163;49.314;6.752;2024-02-23T13:12:15;97582.13;;;5.74;100.00
48352;BME280;34163;49.314;6.752;2024-02-23T13:14:40;97581.59;;;5.83;100.00
48352;BME280;34163;49.314;6.752;2024-02-23T13:17:05;97577.44;;;5.79;100.00
48352;BME280;34163;49.314;6.752;2024-02-23T13:19:30;97578.41;;;5.78;100.00
48352;BME280;34163;49.314;6.752;2024-02-23T13:21:56;97572.97;;;5.81;100.00
48352;BME280;34163;49.314;6.752;2024-02-23T13:24:21;97581.28;;;5.73;100.00
48352;BME280;34163;49.314;6.752;2024-02-23T13:26:46;97581.94;;;5.77;100.00
48352;BME280;34163;49.314;6.752;2024-02-23T13:29:11;97594.34;;;5.75;100.00
48352;BME280;34163;49.314;6.752;2024-02-23T13:31:37;97595.09;;;5.77;100.00
48352;BME280;34163;49.314;6.752;2024-02-23T13:34:03;97601.88;;;5.81;100.00
48352;BME280;34163;49.314;6.752;2024-02-23T13:36:28;97605.66;;;5.91;100.00
48352;BME280;34163;49.314;6.752;2024-02-23T13:38:53;97611.09;;;5.88;100.00
48352;BME280;34163;49.314;6.752;2024-02-23T13:41:21;97611.25;;;5.85;100.00
48352;BME280;34163;49.314;6.752;2024-02-23T13:43:46;97598.03;;;5.87;100.00
48352;BME280;34163;49.314;6.752;2024-02-23T13:46:11;97601.69;;;5.84;100.00
48352;BME280;34163;49.314;6.752;2024-02-23T13:48:37;97593.81;;;5.84;100.00
48352;BME280;34163;49.314;6.752;2024-02-23T13:51:02;97596.44;;;5.84;100.00
48352;BME280;34163;49.314;6.752;2024-02-23T13:53:28;97599.06;;;5.84;100.00
48352;BME280;34163;49.314;6.752;2024-02-23T13:55:53;97601.09;;;5.79;100.00
48352;BME280;34163;49.314;6.752;2024-02-23T13:58:19;97601.19;;;5.77;100.00
48352;BME280;34163;49.314;6.752;2024-02-23T14:00:44;97603.16;;;5.74;100.00
48352;BME280;34163;49.314;6.752;2024-02-23T14:03:10;97607.31;;;5.78;100.00
48352;BME280;34163;49.314;6.752;2024-02-23T14:05:40;97618.91;;;5.74;100.00
48352;BME280;34163;49.314;6.752;2024-02-23T14:08:09;97616.59;;;5.83;100.00
48352;BME280;34163;49.314;6.752;2024-02-23T14:10:34;97608.81;;;5.82;100.00
48352;BME280;34163;49.314;6.752;2024-02-23T14:13:00;97612.47;;;5.79;100.00
48352;BME280;34163;49.314;6.752;2024-02-23T14:15:28;97617.38;;;5.86;100.00
48352;BME280;34163;49.314;6.752;2024-02-23T14:17:57;97598.28;;;5.82;100.00
48352;BME280;34163;49.314;6.752;2024-02-23T14:20:22;97598.38;;;5.80;100.00
48352;BME280;34163;49.314;6.752;2024-02-23T14:22:47;97597.53;;;5.80;100.00
48352;BME280;34163;49.314;6.752;2024-02-23T14:25:15;97599.44;;;5.78;100.00
48352;BME280;34163;49.314;6.752;2024-02-23T14:27:40;97592.63;;;5.74;100.00
48352;BME280;34163;49.314;6.752;2024-02-23T14:30:06;97594.59;;;5.70;100.00
48352;BME280;34163;49.314;6.752;2024-02-23T14:32:32;97593.69;;;5.71;100.00
48352;BME280;34163;49.314;6.752;2024-02-23T14:34:57;97590.00;;;5.74;100.00
48352;BME280;34163;49.314;6.752;2024-02-23T14:37:23;97580.34;;;5.74;100.00
48352;BME280;34163;49.314;6.752;2024-02-23T14:39:48;97567.31;;;5.73;100.00
48352;BME280;34163;49.314;6.752;2024-02-23T14:42:14;97573.50;;;5.72;100.00
48352;BME280;34163;49.314;6.752;2024-02-23T14:44:39;97564.88;;;5.70;100.00
48352;BME280;34163;49.314;6.752;2024-02-23T14:47:05;97550.84;;;10.04;100.00
48352;BME280;34163;49.314;6.752;2024-02-23T14:49:30;97549.19;;;6.70;100.00
48352;BME280;34163;49.314;6.752;2024-02-23T14:51:55;97564.03;;;6.14;100.00
48352;BME280;34163;49.314;6.752;2024-02-23T14:54:21;97572.66;;;6.02;100.00
48352;BME280;34163;49.314;6.752;2024-02-23T14:56:46;97573.94;;;5.94;100.00
48352;BME280;34163;49.314;6.752;2024-02-23T14:59:13;97560.97;;;5.91;100.00
48352;BME280;34163;49.314;6.752;2024-02-23T15:01:39;97567.06;;;5.92;100.00
48352;BME280;34163;49.314;6.752;2024-02-23T15:04:07;97570.72;;;5.89;100.00
48352;BME280;34163;49.314;6.752;2024-02-23T15:06:32;97570.91;;;5.86;100.00
48352;BME280;34163;49.314;6.752;2024-02-23T15:08:58;97573.63;;;5.85;100.00
48352;BME280;34163;49.314;6.752;2024-02-23T15:11:24;97568.47;;;5.83;100.00
48352;BME280;34163;49.314;6.752;2024-02-23T15:13:52;97564.91;;;5.84;100.00
48352;BME280;34163;49.314;6.752;2024-02-23T15:16:22;97558.13;;;5.80;100.00
48352;BME280;34163;49.314;6.752;2024-02-23T15:18:48;97553.69;;;5.80;100.00
48352;BME280;34163;49.314;6.752;2024-02-23T15:21:14;97553.97;;;5.76;100.00
48352;BME280;34163;49.314;6.752;2024-02-23T15:23:40;97553.03;;;5.77;100.00
48352;BME280;34163;49.314;6.752;2024-02-23T15:26:08;97550.31;;;5.78;100.00
48352;BME280;34163;49.314;6.752;2024-02-23T15:28:33;97550.50;;;5.75;100.00
48352;BME280;34163;49.314;6.752;2024-02-23T15:30:59;97554.34;;;5.70;100.00
48352;BME280;34163;49.314;6.752;2024-02-23T15:33:25;97552.31;;;5.75;100.00
48352;BME280;34163;49.314;6.752;2024-02-23T15:35:50;97553.13;;;5.75;100.00
48352;BME280;34163;49.314;6.752;2024-02-23T15:38:15;97559.63;;;5.70;100.00
48352;BME280;34163;49.314;6.752;2024-02-23T15:40:40;97552.56;;;5.70;100.00
48352;BME280;34163;49.314;6.752;2024-02-23T15:43:06;97554.19;;;5.73;100.00
48352;BME280;34163;49.314;6.752;2024-02-23T15:45:31;97549.28;;;5.67;100.00
48352;BME280;34163;49.314;6.752;2024-02-23T15:47:56;97554.53;;;5.67;100.00
48352;BME280;34163;49.314;6.752;2024-02-23T15:50:22;97549.84;;;5.72;100.00
48352;BME280;34163;49.314;6.752;2024-02-23T15:52:47;97541.41;;;5.67;100.00
48352;BME280;34163;49.314;6.752;2024-02-23T15:55:13;97540.44;;;5.68;100.00
48352;BME280;34163;49.314;6.752;2024-02-23T15:57:38;97541.41;;;5.67;100.00
48352;BME280;34163;49.314;6.752;2024-02-23T16:00:07;97552.84;;;5.66;100.00
48352;BME280;34163;49.314;6.752;2024-02-23T16:02:38;97556.38;;;5.64;100.00
48352;BME280;34163;49.314;6.752;2024-02-23T16:05:03;97545.88;;;5.64;100.00
48352;BME280;34163;49.314;6.752;2024-02-23T16:07:31;97543.16;;;5.66;100.00
48352;BME280;34163;49.314;6.752;2024-02-23T16:09:56;97543.41;;;5.61;100.00
48352;BME280;34163;49.314;6.752;2024-02-23T16:12:22;97535.38;;;5.64;100.00
48352;BME280;34163;49.314;6.752;2024-02-23T16:14:47;97546.75;;;5.65;100.00
48352;BME280;34163;49.314;6.752;2024-02-23T16:17:12;97546.06;;;5.61;100.00
48352;BME280;34163;49.314;6.752;2024-02-23T16:19:37;97545.88;;;5.64;100.00
48352;BME280;34163;49.314;6.752;2024-02-23T16:22:03;97544.94;;;5.66;100.00
48352;BME280;34163;49.314;6.752;2024-02-23T16:24:28;97544.19;;;5.63;100.00
48352;BME280;34163;49.314;6.752;2024-02-23T16:26:53;97548.59;;;5.63;100.00
48352;BME280;34163;49.314;6.752;2024-02-23T16:29:19;97546.91;;;5.62;100.00
48352;BME280;34163;49.314;6.752;2024-02-23T16:31:44;97537.34;;;5.61;100.00
48352;BME280;34163;49.314;6.752;2024-02-23T16:34:10;97549.28;;;5.67;100.00
48352;BME280;34163;49.314;6.752;2024-02-23T16:36:35;97552.84;;;5.66;100.00
48352;BME280;34163;49.314;6.752;2024-02-23T16:39:00;97548.16;;;5.71;100.00
48352;BME280;34163;49.314;6.752;2024-02-23T16:41:27;97552.47;;;5.72;100.00
48352;BME280;34163;49.314;6.752;2024-02-23T16:43:52;97549.28;;;5.67;100.00
48352;BME280;34163;49.314;6.752;2024-02-23T16:47:05;97551.03;;;5.66;100.00
48352;BME280;34163;49.314;6.752;2024-02-23T16:49:31;97554.44;;;5.68;100.00
48352;BME280;34163;49.314;6.752;2024-02-23T16:51:56;97552.09;;;5.63;100.00
48352;BME280;34163;49.314;6.752;2024-02-23T16:54:22;97547.75;;;5.62;100.00
48352;BME280;34163;49.314;6.752;2024-02-23T16:56:47;97544.19;;;5.63;100.00
48352;BME280;34163;49.314;6.752;2024-02-23T16:59:12;97541.75;;;5.60;100.00
48352;BME280;34163;49.314;6.752;2024-02-23T17:01:37;97541.84;;;5.59;100.00
48352;BME280;34163;49.314;6.752;2024-02-23T17:04:03;97537.78;;;5.53;100.00
48352;BME280;34163;49.314;6.752;2024-02-23T17:06:28;97539.13;;;5.60;100.00
48352;BME280;34163;49.314;6.752;2024-02-23T17:08:53;97544.81;;;5.53;100.00
48352;BME280;34163;49.314;6.752;2024-02-23T17:11:19;97544.56;;;5.57;100.00
48352;BME280;34163;49.314;6.752;2024-02-23T17:13:46;97549.06;;;5.55;100.00
48352;BME280;34163;49.314;6.752;2024-02-23T17:16:12;97551.59;;;5.57;100.00
48352;BME280;34163;49.314;6.752;2024-02-23T17:18:37;97555.06;;;5.57;100.00
48352;BME280;34163;49.314;6.752;2024-02-23T17:21:02;97554.31;;;5.55;100.00
48352;BME280;34163;49.314;6.752;2024-02-23T17:23:29;97553.53;;;5.53;100.00
48352;BME280;34163;49.314;6.752;2024-02-23T17:25:55;97556.16;;;5.53;100.00
48352;BME280;34163;49.314;6.752;2024-02-23T17:28:20;97565.56;;;5.57;100.00
48352;BME280;34163;49.314;6.752;2024-02-23T17:30:46;97566.00;;;5.50;100.00
48352;BME280;34163;49.314;6.752;2024-02-23T17:33:20;97562.38;;;5.52;100.00
48352;BME280;34163;49.314;6.752;2024-02-23T17:35:46;97561.84;;;5.45;100.00
48352;BME280;34163;49.314;6.752;2024-02-23T17:38:17;97560.84;;;5.48;100.00
48352;BME280;34163;49.314;6.752;2024-02-23T17:40:42;97578.88;;;5.54;100.00
48352;BME280;34163;49.314;6.752;2024-02-23T17:45:55;97579.97;;;5.50;100.00
48352;BME280;34163;49.314;6.752;2024-02-23T17:48:21;97571.53;;;5.45;100.00
48352;BME280;34163;49.314;6.752;2024-02-23T17:50:46;97575.75;;;5.48;100.00
48352;BME280;34163;49.314;6.752;2024-02-23T17:53:11;97568.91;;;5.45;100.00
48352;BME280;34163;49.314;6.752;2024-02-23T17:55:37;97571.75;;;6.46;100.00
48352;BME280;34163;49.314;6.752;2024-02-23T17:58:02;97569.44;;;5.96;100.00
48352;BME280;34163;49.314;6.752;2024-02-23T18:00:27;97563.84;;;5.87;100.00
48352;BME280;34163;49.314;6.752;2024-02-23T18:02:58;97564.78;;;5.71;100.00
48352;BME280;34163;49.314;6.752;2024-02-23T18:05:25;97567.50;;;5.70;100.00
48352;BME280;34163;49.314;6.752;2024-02-23T18:07:52;97569.34;;;5.68;100.00
48352;BME280;34163;49.314;6.752;2024-02-23T18:10:18;97558.91;;;5.66;100.00
48352;BME280;34163;49.314;6.752;2024-02-23T18:12:46;97567.75;;;5.65;100.00
48352;BME280;34163;49.314;6.752;2024-02-23T18:15:11;97565.03;;;5.67;100.00
48352;BME280;34163;49.314;6.752;2024-02-23T18:17:36;97570.47;;;5.63;100.00
48352;BME280;34163;49.314;6.752;2024-02-23T18:20:04;97570.22;;;5.68;100.00
48352;BME280;34163;49.314;6.752;2024-02-23T18:22:30;97571.97;;;5.68;100.00
48352;BME280;34163;49.314;6.752;2024-02-23T18:24:55;97568.78;;;5.62;100.00
48352;BME280;34163;49.314;6.752;2024-02-23T18:27:20;97571.03;;;5.69;100.00
48352;BME280;34163;49.314;6.752;2024-02-23T18:29:46;97572.06;;;5.66;100.00
48352;BME280;34163;49.314;6.752;2024-02-23T18:32:11;97574.94;;;5.61;100.00
48352;BME280;34163;49.314;6.752;2024-02-23T18:34:37;97574.03;;;5.62;100.00
48352;BME280;34163;49.314;6.752;2024-02-23T18:37:02;97574.84;;;5.63;100.00
48352;BME280;34163;49.314;6.752;2024-02-23T18:39:29;97566.53;;;5.71;100.00
48352;BME280;34163;49.314;6.752;2024-02-23T18:41:54;97573.28;;;5.60;100.00
48352;BME280;34163;49.314;6.752;2024-02-23T18:44:19;97574.94;;;5.61;100.00
48352;BME280;34163;49.314;6.752;2024-02-23T18:46:45;97575.81;;;5.62;100.00
48352;BME280;34163;49.314;6.752;2024-02-23T18:49:10;97589.03;;;5.60;100.00
48352;BME280;34163;49.314;6.752;2024-02-23T18:51:35;97589.69;;;5.64;100.00